Webcam Flughafen St.Gallen-Altenrhein

Live-Bilder und Zeitraffer LSZR / ACH.

 

Live aus Altenrhein
LIVE
LSZR 080320Z AUTO VRB02KT CAVOK 12/10 Q1019
Zeitraffer heute
2020-07-08 00:14:43
LSZR 072150Z AUTO VRB01KT CAVOK 14/10 Q1019